Time;durP1;ratioP1;P1;durP2;ratioP2;P2;SDS_P1;SDS_P2;PMS_P1;PMS_P2;Temp;Humidity;BMP_temperature;BMP_pressure;BME280_temperature;BME280_humidity;BME280_pressure;Samples;Min_cycle;Max_cycle;Signal;HPM_P1;HPM_P2
2024/04/04 00:00:59;;;;;;;;;;;;;;;;;;5099915;28;19912;-81
2024/04/04 00:03:25;;;;;;;;;;;;;;;;;;5099864;28;19948;-80
2024/04/04 00:05:53;;;;;;;;;;;;;;;;;;5099153;28;19978;-81
2024/04/04 00:08:18;;;;;;;;;;;;;;;;;;5100136;28;19954;-80
2024/04/04 00:10:43;;;;;;;;;;;;;;;;;;5100143;28;19912;-81
2024/04/04 00:13:08;;;;;;;;;;;;;;;;;;5099615;28;20306;-81
2024/04/04 00:15:34;;;;;;;;;;;;;;;;;;5100322;28;19912;-81
2024/04/04 00:17:59;;;;;;;;;;;;;;;;;;5100334;28;19915;-81
2024/04/04 00:20:24;;;;;;;;;;;;;;;;;;5099219;28;20305;-81
2024/04/04 00:22:49;;;;;;;;;;;;;;;;;;5098395;28;19908;-80
2024/04/04 00:25:14;;;;;;;;;;;;;;;;;;5098881;28;19920;-81
2024/04/04 00:27:39;;;;;;;;;;;;;;;;;;5099685;28;19908;-81
2024/04/04 00:30:04;;;;;;;;;;;;;;;;;;5098404;28;19912;-82
2024/04/04 00:32:29;;;;;;;;;;;;;;;;;;5099350;28;20340;-82
2024/04/04 00:34:55;;;;;;;;;;;;;;;;;;5098851;28;19908;-81
2024/04/04 00:37:20;;;;;;;;;;;;;;;;;;5098382;28;19943;-80
2024/04/04 00:39:45;;;;;;;;;;;;;;;;;;5099708;28;19953;-81
2024/04/04 00:42:10;;;;;;;;;;;;;;;;;;5098356;28;19912;-82
2024/04/04 00:44:35;;;;;;;;;;;;;;;;;;5099349;28;19908;-81
2024/04/04 00:47:00;;;;;;;;;;;;;;;;;;5098770;28;19975;-81
2024/04/04 00:49:25;;;;;;;;;;;;;;;;;;5099929;28;19919;-82
2024/04/04 00:51:50;;;;;;;;;;;;;;;;;;5097491;28;19908;-81
2024/04/04 00:54:16;;;;;;;;;;;;;;;;;;5099001;28;19924;-81
2024/04/04 00:56:41;;;;;;;;;;;;;;;;;;5098459;28;20405;-81
2024/04/04 00:59:11;;;;;;;;;;;;;;;;;;5097993;28;19915;-81
2024/04/04 01:01:36;;;;;;;;;;;;;;;;;;5098981;28;19918;-82
2024/04/04 01:04:01;;;;;;;;;;;;;;;;;;5097935;28;20002;-81
2024/04/04 01:06:26;;;;;;;;;;;;;;;;;;5099199;28;19915;-82
2024/04/04 01:08:51;;;;;;;;;;;;;;;;;;5098688;28;19933;-80
2024/04/04 01:11:16;;;;;;;;;;;;;;;;;;5098840;28;19915;-80
2024/04/04 01:13:41;;;;;;;;;;;;;;;;;;5097185;28;19909;-81
2024/04/04 01:16:06;;;;;;;;;;;;;;;;;;5099206;28;19971;-81
2024/04/04 01:18:32;;;;;;;;;;;;;;;;;;5095355;28;19908;-80
2024/04/04 01:20:57;;;;;;;;;;;;;;;;;;5093069;28;20190;-80
2024/04/04 01:23:22;;;;;;;;;;;;;;;;;;5092594;28;19953;-80
2024/04/04 01:25:47;;;;;;;;;;;;;;;;;;5094934;28;19920;-79
2024/04/04 01:28:12;;;;;;;;;;;;;;;;;;5094948;28;19908;-80
2024/04/04 01:30:37;;;;;;;;;;;;;;;;;;5095411;28;19908;-82
2024/04/04 01:33:02;;;;;;;;;;;;;;;;;;5093774;28;19909;-80
2024/04/04 01:35:28;;;;;;;;;;;;;;;;;;5094752;28;19996;-79
2024/04/04 01:37:53;;;;;;;;;;;;;;;;;;5094821;28;19944;-81
2024/04/04 01:40:18;;;;;;;;;;;;;;;;;;5094525;28;19919;-81
2024/04/04 01:42:43;;;;;;;;;;;;;;;;;;5095360;28;19912;-82
2024/04/04 01:45:08;;;;;;;;;;;;;;;;;;5094765;28;19950;-81
2024/04/04 01:47:33;;;;;;;;;;;;;;;;;;5094522;28;19978;-82
2024/04/04 01:49:58;;;;;;;;;;;;;;;;;;5096652;28;20290;-80
2024/04/04 01:52:23;;;;;;;;;;;;;;;;;;5095080;28;19962;-82
2024/04/04 01:54:49;;;;;;;;;;;;;;;;;;5096141;28;19908;-80
2024/04/04 01:57:14;;;;;;;;;;;;;;;;;;5097037;28;19912;-82
2024/04/04 01:59:39;;;;;;;;;;;;;;;;;;5096837;28;20389;-82
2024/04/04 02:02:04;;;;;;;;;;;;;;;;;;5095245;28;20294;-81
2024/04/04 02:04:29;;;;;;;;;;;;;;;;;;5095495;28;19923;-81
2024/04/04 02:06:54;;;;;;;;;;;;;;;;;;5095781;28;19966;-82
2024/04/04 02:09:20;;;;;;;;;;;;;;;;;;5097378;28;19908;-81
2024/04/04 02:11:45;;;;;;;;;;;;;;;;;;5095012;28;19911;-80
2024/04/04 02:14:10;;;;;;;;;;;;;;;;;;5097591;28;19909;-80
2024/04/04 02:16:35;;;;;;;;;;;;;;;;;;5093369;28;19908;-80
2024/04/04 02:19:00;;;;;;;;;;;;;;;;;;5093668;28;19912;-82
2024/04/04 02:21:25;;;;;;;;;;;;;;;;;;5095235;28;20390;-81
2024/04/04 02:23:51;;;;;;;;;;;;;;;;;;5095125;28;19908;-83
2024/04/04 02:26:16;;;;;;;;;;;;;;;;;;5095624;28;19922;-83
2024/04/04 02:28:41;;;;;;;;;;;;;;;;;;5096895;28;19908;-82
2024/04/04 02:31:06;;;;;;;;;;;;;;;;;;5095122;28;19908;-83
2024/04/04 02:33:31;;;;;;;;;;;;;;;;;;5095471;28;19914;-83
2024/04/04 02:35:56;;;;;;;;;;;;;;;;;;5095804;28;19908;-82
2024/04/04 02:38:21;;;;;;;;;;;;;;;;;;5095427;28;19943;-83
2024/04/04 02:40:46;;;;;;;;;;;;;;;;;;5096394;28;19978;-82
2024/04/04 02:43:12;;;;;;;;;;;;;;;;;;5094936;28;19922;-83
2024/04/04 02:45:37;;;;;;;;;;;;;;;;;;5095480;28;19908;-82
2024/04/04 02:48:02;;;;;;;;;;;;;;;;;;5095125;28;19916;-82
2024/04/04 02:50:27;;;;;;;;;;;;;;;;;;5095569;28;20447;-83
2024/04/04 02:52:53;;;;;;;;;;;;;;;;;;5093849;28;19909;-82
2024/04/04 02:55:18;;;;;;;;;;;;;;;;;;5094736;28;19995;-82
2024/04/04 02:57:43;;;;;;;;;;;;;;;;;;5095357;28;19912;-81
2024/04/04 03:00:08;;;;;;;;;;;;;;;;;;5094558;28;20069;-82
2024/04/04 03:02:34;;;;;;;;;;;;;;;;;;5094889;28;19912;-82
2024/04/04 03:04:59;;;;;;;;;;;;;;;;;;5094494;28;20093;-81
2024/04/04 03:07:24;;;;;;;;;;;;;;;;;;5095173;28;19912;-83
2024/04/04 03:09:49;;;;;;;;;;;;;;;;;;5094625;28;19915;-82
2024/04/04 03:12:14;;;;;;;;;;;;;;;;;;5093723;28;19912;-83
2024/04/04 03:14:39;;;;;;;;;;;;;;;;;;5094584;28;19986;-82
2024/04/04 03:17:04;;;;;;;;;;;;;;;;;;5092918;28;19935;-82
2024/04/04 03:19:29;;;;;;;;;;;;;;;;;;5093693;28;20454;-82
2024/04/04 03:21:54;;;;;;;;;;;;;;;;;;5093767;28;20453;-83
2024/04/04 03:24:20;;;;;;;;;;;;;;;;;;5096144;28;19912;-82
2024/04/04 03:26:45;;;;;;;;;;;;;;;;;;5096151;28;20389;-82
2024/04/04 03:29:10;;;;;;;;;;;;;;;;;;5096254;28;19915;-81
2024/04/04 03:31:35;;;;;;;;;;;;;;;;;;5097938;28;19908;-82
2024/04/04 03:34:00;;;;;;;;;;;;;;;;;;5095706;28;19945;-81
2024/04/04 03:36:25;;;;;;;;;;;;;;;;;;5097295;28;20138;-81
2024/04/04 03:38:50;;;;;;;;;;;;;;;;;;5097405;28;19909;-81
2024/04/04 03:41:16;;;;;;;;;;;;;;;;;;5097116;28;19958;-82
2024/04/04 03:43:41;;;;;;;;;;;;;;;;;;5096980;28;19908;-81
2024/04/04 03:46:06;;;;;;;;;;;;;;;;;;5096670;28;19908;-81
2024/04/04 03:48:31;;;;;;;;;;;;;;;;;;5095330;28;19995;-82
2024/04/04 03:50:56;;;;;;;;;;;;;;;;;;5097443;28;19935;-82
2024/04/04 03:53:21;;;;;;;;;;;;;;;;;;5095510;28;19915;-81
2024/04/04 03:55:46;;;;;;;;;;;;;;;;;;5097389;28;19999;-82
2024/04/04 03:58:12;;;;;;;;;;;;;;;;;;5096965;28;20008;-83
2024/04/04 04:00:37;;;;;;;;;;;;;;;;;;5095821;28;20362;-83
2024/04/04 04:03:02;;;;;;;;;;;;;;;;;;5097155;28;19916;-83
2024/04/04 04:05:27;;;;;;;;;;;;;;;;;;5097095;28;19908;-82
2024/04/04 04:07:52;;;;;;;;;;;;;;;;;;5095471;28;19908;-83
2024/04/04 04:10:18;;;;;;;;;;;;;;;;;;5095025;28;19919;-82
2024/04/04 04:12:43;;;;;;;;;;;;;;;;;;5095275;28;19953;-83
2024/04/04 04:15:08;;;;;;;;;;;;;;;;;;5096773;28;19908;-83
2024/04/04 04:17:33;;;;;;;;;;;;;;;;;;5097359;28;19909;-82
2024/04/04 04:19:58;;;;;;;;;;;;;;;;;;5096677;28;19915;-81
2024/04/04 04:22:23;;;;;;;;;;;;;;;;;;5096051;28;19946;-81
2024/04/04 04:24:49;;;;;;;;;;;;;;;;;;5096890;28;19923;-83
2024/04/04 04:27:14;;;;;;;;;;;;;;;;;;5095545;28;19916;-82
2024/04/04 04:29:39;;;;;;;;;;;;;;;;;;5095439;28;19939;-81
2024/04/04 04:32:04;;;;;;;;;;;;;;;;;;5096204;28;19931;-81
2024/04/04 04:34:29;;;;;;;;;;;;;;;;;;5095185;28;19912;-81
2024/04/04 04:36:54;;;;;;;;;;;;;;;;;;5096739;28;19916;-80
2024/04/04 04:39:20;;;;;;;;;;;;;;;;;;5096072;28;19957;-83
2024/04/04 04:41:45;;;;;;;;;;;;;;;;;;5093782;28;19913;-81
2024/04/04 04:44:10;;;;;;;;;;;;;;;;;;5093166;28;19975;-81
2024/04/04 04:46:35;;;;;;;;;;;;;;;;;;5094022;28;20002;-81
2024/04/04 04:49:00;;;;;;;;;;;;;;;;;;5094118;28;19912;-81
2024/04/04 04:51:25;;;;;;;;;;;;;;;;;;5093810;28;19908;-81
2024/04/04 04:53:50;;;;;;;;;;;;;;;;;;5092716;28;19912;-81
2024/04/04 04:56:16;;;;;;;;;;;;;;;;;;5093099;28;19908;-81
2024/04/04 04:58:41;;;;;;;;;;;;;;;;;;5093119;28;19909;-83
2024/04/04 05:01:06;;;;;;;;;;;;;;;;;;5094423;28;20400;-82
2024/04/04 05:03:31;;;;;;;;;;;;;;;;;;5093999;28;20374;-82
2024/04/04 05:05:56;;;;;;;;;;;;;;;;;;5094228;28;20286;-83
2024/04/04 05:08:21;;;;;;;;;;;;;;;;;;5094213;28;19908;-81
2024/04/04 05:10:46;;;;;;;;;;;;;;;;;;5095269;28;19913;-82
2024/04/04 05:13:11;;;;;;;;;;;;;;;;;;5094548;28;19908;-82
2024/04/04 05:15:37;;;;;;;;;;;;;;;;;;5093909;28;19998;-82
2024/04/04 05:18:02;;;;;;;;;;;;;;;;;;5095553;28;20240;-82
2024/04/04 05:20:27;;;;;;;;;;;;;;;;;;5094346;28;19965;-82
2024/04/04 05:22:52;;;;;;;;;;;;;;;;;;5093676;28;20194;-83
2024/04/04 05:25:17;;;;;;;;;;;;;;;;;;5094508;28;19973;-83
2024/04/04 05:27:42;;;;;;;;;;;;;;;;;;5095657;28;19912;-81
2024/04/04 05:30:10;;;;;;;;;;;;;;;;;;5095713;28;19908;-82
2024/04/04 05:32:35;;;;;;;;;;;;;;;;;;5095058;28;19908;-81
2024/04/04 05:35:00;;;;;;;;;;;;;;;;;;5095545;28;19915;-82
2024/04/04 05:37:25;;;;;;;;;;;;;;;;;;5094085;28;19977;-82
2024/04/04 05:39:50;;;;;;;;;;;;;;;;;;5093735;28;19948;-83
2024/04/04 05:42:15;;;;;;;;;;;;;;;;;;5093153;28;19915;-81
2024/04/04 05:44:40;;;;;;;;;;;;;;;;;;5093784;28;19908;-83
2024/04/04 05:47:06;;;;;;;;;;;;;;;;;;5094336;28;19912;-83
2024/04/04 05:49:31;;;;;;;;;;;;;;;;;;5096593;28;19987;-83
2024/04/04 05:51:56;;;;;;;;;;;;;;;;;;5095022;28;20397;-83
2024/04/04 05:54:22;;;;;;;;;;;;;;;;;;5097204;28;19915;-83
2024/04/04 05:56:47;;;;;;;;;;;;;;;;;;5094576;28;19915;-81
2024/04/04 05:59:12;;;;;;;;;;;;;;;;;;5096449;28;19954;-82
2024/04/04 06:01:37;;;;;;;;;;;;;;;;;;5094122;28;19912;-82
2024/04/04 06:04:02;;;;;;;;;;;;;;;;;;5095624;28;19912;-82
2024/04/04 06:06:28;;;;;;;;;;;;;;;;;;5093808;28;20389;-82
2024/04/04 06:08:55;;;;;;;;;;;;;;;;;;5095806;28;19915;-83
2024/04/04 06:11:20;;;;;;;;;;;;;;;;;;5093623;28;20374;-82
2024/04/04 06:13:45;;;;;;;;;;;;;;;;;;5094089;28;19916;-82
2024/04/04 06:16:10;;;;;;;;;;;;;;;;;;5093252;28;19912;-81
2024/04/04 06:18:35;;;;;;;;;;;;;;;;;;5094956;28;19908;-82
2024/04/04 06:21:00;;;;;;;;;;;;;;;;;;5095610;28;19912;-80
2024/04/04 06:23:27;;;;;;;;;;;;;;;;;;5092787;28;19953;-82
2024/04/04 06:25:52;;;;;;;;;;;;;;;;;;5093559;28;19916;-82
2024/04/04 06:28:17;;;;;;;;;;;;;;;;;;5094566;28;19916;-81
2024/04/04 06:30:42;;;;;;;;;;;;;;;;;;5093569;28;19908;-83
2024/04/04 06:33:07;;;;;;;;;;;;;;;;;;5092673;28;20390;-83
2024/04/04 06:35:32;;;;;;;;;;;;;;;;;;5093185;28;19947;-83
2024/04/04 06:37:58;;;;;;;;;;;;;;;;;;5093440;28;19912;-83
2024/04/04 06:40:23;;;;;;;;;;;;;;;;;;5094806;28;19912;-83
2024/04/04 06:42:48;;;;;;;;;;;;;;;;;;5093018;28;20271;-83
2024/04/04 06:45:13;;;;;;;;;;;;;;;;;;5094142;28;19908;-83
2024/04/04 06:47:38;;;;;;;;;;;;;;;;;;5094652;28;19961;-82
2024/04/04 06:50:03;;;;;;;;;;;;;;;;;;5096331;28;20366;-81
2024/04/04 06:52:28;;;;;;;;;;;;;;;;;;5096080;28;20328;-81
2024/04/04 06:54:53;;;;;;;;;;;;;;;;;;5094998;28;19951;-81
2024/04/04 06:57:18;;;;;;;;;;;;;;;;;;5097106;28;20290;-82
2024/04/04 06:59:44;;;;;;;;;;;;;;;;;;5098096;28;19908;-81
2024/04/04 07:02:09;;;;;;;;;;;;;;;;;;5099647;28;19981;-81
2024/04/04 07:04:34;;;;;;;;;;;;;;;;;;5100277;28;19969;-81
2024/04/04 07:06:59;;;;;;;;;;;;;;;;;;5099065;28;19912;-81
2024/04/04 07:09:24;;;;;;;;;;;;;;;;;;5099181;28;19934;-79
2024/04/04 07:11:50;;;;;;;;;;;;;;;;;;5097857;28;20293;-79
2024/04/04 07:14:15;;;;;;;;;;;;;;;;;;5097718;28;19955;-81
2024/04/04 07:16:40;;;;;;;;;;;;;;;;;;5100177;28;19913;-83
2024/04/04 07:19:05;;;;;;;;;;;;;;;;;;5099562;28;19914;-81
2024/04/04 07:21:30;;;;;;;;;;;;;;;;;;5099076;28;20583;-84
2024/04/04 07:23:55;;;;;;;;;;;;;;;;;;5097157;28;19912;-83
2024/04/04 07:26:20;;;;;;;;;;;;;;;;;;5096352;28;19916;-84
2024/04/04 07:28:46;;;;;;;;;;;;;;;;;;5099593;28;19908;-81
2024/04/04 07:31:11;;;;;;;;;;;;;;;;;;5080208;28;19912;-83
2024/04/04 07:33:36;;;;;;;;;;;;;;;;;;5097272;28;20381;-84
2024/04/04 07:36:01;;;;;;;;;;;;;;;;;;5079096;28;19915;-83
2024/04/04 07:38:26;;;;;;;;;;;;;;;;;;5098915;28;19986;-80
2024/04/04 07:40:51;;;;;;;;;;;;;;;;;;5098372;28;19923;-78
2024/04/04 07:43:18;;;;;;;;;;;;;;;;;;5095896;28;19908;-79
2024/04/04 07:45:43;;;;;;;;;;;;;;;;;;5097718;28;19999;-80
2024/04/04 07:48:08;;;;;;;;;;;;;;;;;;5097119;28;19947;-79
2024/04/04 07:50:34;;;;;;;;;;;;;;;;;;5099127;28;19908;-82
2024/04/04 07:52:59;;;;;;;;;;;;;;;;;;5095866;28;19968;-80
2024/04/04 07:55:24;;;;;;;;;;;;;;;;;;5097104;28;20473;-80
2024/04/04 07:57:49;;;;;;;;;;;;;;;;;;5097220;28;19912;-81
2024/04/04 08:00:14;;;;;;;;;;;;;;;;;;5096868;28;20012;-80
2024/04/04 08:02:39;;;;;;;;;;;;;;;;;;5096413;28;19950;-81
2024/04/04 08:05:05;;;;;;;;;;;;;;;;;;5096074;28;19916;-81
2024/04/04 08:07:35;;;;;;;;;;;;;;;;;;5096045;28;19908;-82
2024/04/04 08:10:00;;;;;;;;;;;;;;;;;;5095622;28;19909;-81
2024/04/04 08:12:27;;;;;;;;;;;;;;;;;;5078353;28;19947;-82
2024/04/04 08:14:52;;;;;;;;;;;;;;;;;;5097437;28;20334;-82
2024/04/04 08:17:17;;;;;;;;;;;;;;;;;;5097764;28;19908;-78
2024/04/04 08:19:42;;;;;;;;;;;;;;;;;;5097121;28;19915;-80
2024/04/04 08:22:10;;;;;;;;;;;;;;;;;;5095713;28;19912;-80
2024/04/04 08:24:35;;;;;;;;;;;;;;;;;;5096371;28;19912;-79
2024/04/04 08:27:00;;;;;;;;;;;;;;;;;;5096644;28;19908;-79
2024/04/04 08:29:26;;;;;;;;;;;;;;;;;;5097356;28;19950;-79
2024/04/04 08:31:51;;;;;;;;;;;;;;;;;;5096773;28;19908;-80
2024/04/04 08:34:16;;;;;;;;;;;;;;;;;;5095281;28;19915;-79
2024/04/04 08:36:42;;;;;;;;;;;;;;;;;;5097077;28;19995;-78
2024/04/04 08:39:08;;;;;;;;;;;;;;;;;;5096247;28;19957;-80
2024/04/04 08:41:33;;;;;;;;;;;;;;;;;;5096990;28;19912;-80
2024/04/04 08:43:59;;;;;;;;;;;;;;;;;;5095602;28;19912;-80
2024/04/04 08:46:24;;;;;;;;;;;;;;;;;;5078921;28;19912;-79
2024/04/04 08:48:49;;;;;;;;;;;;;;;;;;5094522;28;19941;-78
2024/04/04 08:51:15;;;;;;;;;;;;;;;;;;5094341;28;19952;-80
2024/04/04 08:53:40;;;;;;;;;;;;;;;;;;5095625;28;19912;-80
2024/04/04 08:56:05;;;;;;;;;;;;;;;;;;5096193;28;20405;-80
2024/04/04 08:58:30;;;;;;;;;;;;;;;;;;5096196;28;19909;-79
2024/04/04 09:00:55;;;;;;;;;;;;;;;;;;5095462;28;19923;-80
2024/04/04 09:03:22;;;;;;;;;;;;;;;;;;5093601;28;19908;-79
2024/04/04 09:05:47;;;;;;;;;;;;;;;;;;5095261;28;19908;-79
2024/04/04 09:08:12;;;;;;;;;;;;;;;;;;5096444;28;20275;-80
2024/04/04 09:10:37;;;;;;;;;;;;;;;;;;5094770;28;20045;-79
2024/04/04 09:13:02;;;;;;;;;;;;;;;;;;5095446;28;19909;-80
2024/04/04 09:15:28;;;;;;;;;;;;;;;;;;5096737;28;19916;-79
2024/04/04 09:17:53;;;;;;;;;;;;;;;;;;5096261;28;19908;-80
2024/04/04 09:20:18;;;;;;;;;;;;;;;;;;5096000;28;19912;-80
2024/04/04 09:22:43;;;;;;;;;;;;;;;;;;5095112;28;20290;-83
2024/04/04 09:25:09;;;;;;;;;;;;;;;;;;5096934;28;20367;-80
2024/04/04 09:27:34;;;;;;;;;;;;;;;;;;5096300;28;19975;-79
2024/04/04 09:29:59;;;;;;;;;;;;;;;;;;5097694;28;19915;-80
2024/04/04 09:32:25;;;;;;;;;;;;;;;;;;5094235;28;19912;-79
2024/04/04 09:34:50;;;;;;;;;;;;;;;;;;5094734;28;19915;-79
2024/04/04 09:37:15;;;;;;;;;;;;;;;;;;5086027;28;19916;-80
2024/04/04 09:39:40;;;;;;;;;;;;;;;;;;5096935;28;19947;-79
2024/04/04 09:42:05;;;;;;;;;;;;;;;;;;5092366;28;19966;-79
2024/04/04 09:44:30;;;;;;;;;;;;;;;;;;5093972;28;19909;-78
2024/04/04 09:46:55;;;;;;;;;;;;;;;;;;5093830;28;19915;-79
2024/04/04 09:49:20;;;;;;;;;;;;;;;;;;5092506;28;19914;-79
2024/04/04 09:51:46;;;;;;;;;;;;;;;;;;5089122;28;19908;-80
2024/04/04 09:54:11;;;;;;;;;;;;;;;;;;5094222;28;20056;-80
2024/04/04 09:56:36;;;;;;;;;;;;;;;;;;5093091;28;19934;-80
2024/04/04 09:59:01;;;;;;;;;;;;;;;;;;5093767;28;19920;-79
2024/04/04 10:01:26;;;;;;;;;;;;;;;;;;5093564;28;19969;-80
2024/04/04 10:03:51;;;;;;;;;;;;;;;;;;5075748;28;19915;-80
2024/04/04 10:06:16;;;;;;;;;;;;;;;;;;5075820;28;19916;-81
2024/04/04 10:08:42;;;;;;;;;;;;;;;;;;5094578;28;19915;-81
2024/04/04 10:11:07;;;;;;;;;;;;;;;;;;5094456;28;19912;-79
2024/04/04 10:13:32;;;;;;;;;;;;;;;;;;5094701;28;20003;-81
2024/04/04 10:15:57;;;;;;;;;;;;;;;;;;5095137;28;19951;-81
2024/04/04 10:18:23;;;;;;;;;;;;;;;;;;5069889;28;19908;-80
2024/04/04 10:20:48;;;;;;;;;;;;;;;;;;5083542;28;19923;-80
2024/04/04 10:23:14;;;;;;;;;;;;;;;;;;5076887;28;20169;-81
2024/04/04 10:25:42;;;;;;;;;;;;;;;;;;5095620;28;19939;-80
2024/04/04 10:28:07;;;;;;;;;;;;;;;;;;5095734;28;19908;-80
2024/04/04 10:30:32;;;;;;;;;;;;;;;;;;5095990;28;19935;-80
2024/04/04 10:32:57;;;;;;;;;;;;;;;;;;5079274;28;19920;-81
2024/04/04 10:35:22;;;;;;;;;;;;;;;;;;5099798;28;19912;-81
2024/04/04 10:37:48;;;;;;;;;;;;;;;;;;5081450;28;19914;-80
2024/04/04 10:40:13;;;;;;;;;;;;;;;;;;5098307;28;19999;-80
2024/04/04 10:42:38;;;;;;;;;;;;;;;;;;5098208;28;19954;-81
2024/04/04 10:45:03;;;;;;;;;;;;;;;;;;5097927;28;19913;-81
2024/04/04 10:47:29;;;;;;;;;;;;;;;;;;5098831;28;19908;-81
2024/04/04 10:49:54;;;;;;;;;;;;;;;;;;5096519;28;20317;-80
2024/04/04 10:52:20;;;;;;;;;;;;;;;;;;5092228;28;19944;-80
2024/04/04 10:54:45;;;;;;;;;;;;;;;;;;5098373;28;19927;-79
2024/04/04 10:57:10;;;;;;;;;;;;;;;;;;5098234;28;19977;-80
2024/04/04 10:59:35;;;;;;;;;;;;;;;;;;5098334;28;20393;-80
2024/04/04 11:02:02;;;;;;;;;;;;;;;;;;5079409;28;19978;-82
2024/04/04 11:04:29;;;;;;;;;;;;;;;;;;5079275;28;19958;-80
2024/04/04 11:06:54;;;;;;;;;;;;;;;;;;5099004;28;19952;-80
2024/04/04 11:09:22;;;;;;;;;;;;;;;;;;5099932;28;20332;-81
2024/04/04 11:11:47;;;;;;;;;;;;;;;;;;5097913;28;19954;-81
2024/04/04 11:14:13;;;;;;;;;;;;;;;;;;5098230;28;19912;-80
2024/04/04 11:16:38;;;;;;;;;;;;;;;;;;5098043;28;19934;-79
2024/04/04 11:19:03;;;;;;;;;;;;;;;;;;5099632;28;19951;-80
2024/04/04 11:21:29;;;;;;;;;;;;;;;;;;5098786;28;19912;-81
2024/04/04 11:23:54;;;;;;;;;;;;;;;;;;5099492;28;19967;-81
2024/04/04 11:26:20;;;;;;;;;;;;;;;;;;5099604;28;19956;-81
2024/04/04 11:28:45;;;;;;;;;;;;;;;;;;5098381;28;19916;-81
2024/04/04 11:31:10;;;;;;;;;;;;;;;;;;5099258;28;19908;-81
2024/04/04 11:33:35;;;;;;;;;;;;;;;;;;5098851;28;20002;-80
2024/04/04 11:36:00;;;;;;;;;;;;;;;;;;5097652;28;20136;-81
2024/04/04 11:38:26;;;;;;;;;;;;;;;;;;5097769;28;19915;-81
2024/04/04 11:40:51;;;;;;;;;;;;;;;;;;5099106;28;20363;-81
2024/04/04 11:43:16;;;;;;;;;;;;;;;;;;5098787;28;19909;-81
2024/04/04 11:45:41;;;;;;;;;;;;;;;;;;5098784;28;19953;-81
2024/04/04 11:48:06;;;;;;;;;;;;;;;;;;5098583;28;19975;-82
2024/04/04 11:50:31;;;;;;;;;;;;;;;;;;5097066;28;20294;-81
2024/04/04 11:52:57;;;;;;;;;;;;;;;;;;5098562;28;20302;-82
2024/04/04 11:55:24;;;;;;;;;;;;;;;;;;5096936;28;19931;-80
2024/04/04 11:57:50;;;;;;;;;;;;;;;;;;5098785;28;19908;-81
2024/04/04 12:00:16;;;;;;;;;;;;;;;;;;5098717;28;19912;-81
2024/04/04 12:02:41;;;;;;;;;;;;;;;;;;5096661;28;19908;-80
2024/04/04 12:05:06;;;;;;;;;;;;;;;;;;5097329;28;19957;-80
2024/04/04 12:07:31;;;;;;;;;;;;;;;;;;5098916;28;19908;-82
2024/04/04 12:09:56;;;;;;;;;;;;;;;;;;5099077;28;20274;-81
2024/04/04 12:12:22;;;;;;;;;;;;;;;;;;5097637;28;19908;-81
2024/04/04 12:14:47;;;;;;;;;;;;;;;;;;5098840;28;19908;-82
2024/04/04 12:17:16;;;;;;;;;;;;;;;;;;5099249;28;19908;-82
2024/04/04 12:19:41;;;;;;;;;;;;;;;;;;5098129;28;20015;-83
2024/04/04 12:22:07;;;;;;;;;;;;;;;;;;5097740;28;19959;-82
2024/04/04 12:24:32;;;;;;;;;;;;;;;;;;5098601;28;19919;-81
2024/04/04 12:26:59;;;;;;;;;;;;;;;;;;5097666;28;20040;-83
2024/04/04 12:29:24;;;;;;;;;;;;;;;;;;5098741;28;19916;-82
2024/04/04 12:31:49;;;;;;;;;;;;;;;;;;5098870;28;19915;-82
2024/04/04 12:34:14;;;;;;;;;;;;;;;;;;5097973;28;19912;-82
2024/04/04 12:36:39;;;;;;;;;;;;;;;;;;5099614;28;19920;-82
2024/04/04 12:39:12;;;;;;;;;;;;;;;;;;5098249;28;19908;-82
2024/04/04 12:41:37;;;;;;;;;;;;;;;;;;5098682;28;19912;-82
2024/04/04 12:44:02;;;;;;;;;;;;;;;;;;5099057;28;20017;-84
2024/04/04 12:46:32;;;;;;;;;;;;;;;;;;5097155;28;19908;-83
2024/04/04 12:48:57;;;;;;;;;;;;;;;;;;5097448;28;19908;-84
2024/04/04 12:51:22;;;;;;;;;;;;;;;;;;5095674;28;19915;-83
2024/04/04 12:53:47;;;;;;;;;;;;;;;;;;5097787;28;19908;-83
2024/04/04 12:56:12;;;;;;;;;;;;;;;;;;5095645;28;19915;-84
2024/04/04 12:58:38;;;;;;;;;;;;;;;;;;5087003;28;19998;-83
2024/04/04 13:01:03;;;;;;;;;;;;;;;;;;5098091;28;19963;-84
2024/04/04 13:03:29;;;;;;;;;;;;;;;;;;5093763;28;19930;-81
2024/04/04 13:05:54;;;;;;;;;;;;;;;;;;5095544;28;19915;-82
2024/04/04 13:08:19;;;;;;;;;;;;;;;;;;5094348;28;20187;-82
2024/04/04 13:10:44;;;;;;;;;;;;;;;;;;5094148;28;20294;-82
2024/04/04 13:13:09;;;;;;;;;;;;;;;;;;5094171;28;19951;-83
2024/04/04 13:15:35;;;;;;;;;;;;;;;;;;5092771;28;19912;-82
2024/04/04 13:18:00;;;;;;;;;;;;;;;;;;5093078;28;19908;-82
2024/04/04 13:20:25;;;;;;;;;;;;;;;;;;5094985;28;19982;-81
2024/04/04 13:22:50;;;;;;;;;;;;;;;;;;5093209;28;19908;-83
2024/04/04 13:25:15;;;;;;;;;;;;;;;;;;5093731;28;19998;-82
2024/04/04 13:27:41;;;;;;;;;;;;;;;;;;5094614;28;19908;-82
2024/04/04 13:30:06;;;;;;;;;;;;;;;;;;5094677;28;20334;-82
2024/04/04 13:32:31;;;;;;;;;;;;;;;;;;5094138;28;19934;-81
2024/04/04 13:34:56;;;;;;;;;;;;;;;;;;5094185;28;19977;-82
2024/04/04 13:37:21;;;;;;;;;;;;;;;;;;5093631;28;19912;-82
2024/04/04 13:39:48;;;;;;;;;;;;;;;;;;5095003;28;19961;-84
2024/04/04 13:42:14;;;;;;;;;;;;;;;;;;5094533;28;19913;-84
2024/04/04 13:44:39;;;;;;;;;;;;;;;;;;5093413;28;19909;-82
2024/04/04 13:47:04;;;;;;;;;;;;;;;;;;5093954;28;19919;-80
2024/04/04 13:49:29;;;;;;;;;;;;;;;;;;5094968;28;19919;-82
2024/04/04 13:51:57;;;;;;;;;;;;;;;;;;5094726;28;19947;-81
2024/04/04 13:54:22;;;;;;;;;;;;;;;;;;5094536;28;19908;-83
2024/04/04 13:56:47;;;;;;;;;;;;;;;;;;5094489;28;19919;-84
2024/04/04 13:59:12;;;;;;;;;;;;;;;;;;5093797;28;20434;-82
2024/04/04 14:01:38;;;;;;;;;;;;;;;;;;5093825;28;19958;-84
2024/04/04 14:04:03;;;;;;;;;;;;;;;;;;5093089;28;19912;-81
2024/04/04 14:06:28;;;;;;;;;;;;;;;;;;5093872;28;20373;-82
2024/04/04 14:08:54;;;;;;;;;;;;;;;;;;5094833;28;19978;-82
2024/04/04 14:11:19;;;;;;;;;;;;;;;;;;5094029;28;19930;-82
2024/04/04 14:13:44;;;;;;;;;;;;;;;;;;5096526;28;19908;-82
2024/04/04 14:16:10;;;;;;;;;;;;;;;;;;5093891;28;19975;-82
2024/04/04 14:18:35;;;;;;;;;;;;;;;;;;5095510;28;20370;-84
2024/04/04 14:21:00;;;;;;;;;;;;;;;;;;5095989;28;19916;-83
2024/04/04 14:23:25;;;;;;;;;;;;;;;;;;5095625;28;19912;-83
2024/04/04 14:25:50;;;;;;;;;;;;;;;;;;5095144;28;19963;-83
2024/04/04 14:28:15;;;;;;;;;;;;;;;;;;5095395;28;19912;-83
2024/04/04 14:30:40;;;;;;;;;;;;;;;;;;5094562;28;19916;-84
2024/04/04 14:33:06;;;;;;;;;;;;;;;;;;5085639;28;19912;-84
2024/04/04 14:35:32;;;;;;;;;;;;;;;;;;5076761;28;19915;-83
2024/04/04 14:37:57;;;;;;;;;;;;;;;;;;5095342;28;19912;-83
2024/04/04 14:40:22;;;;;;;;;;;;;;;;;;5094373;28;20136;-84
2024/04/04 14:42:47;;;;;;;;;;;;;;;;;;5082511;28;20088;-83
2024/04/04 14:45:12;;;;;;;;;;;;;;;;;;5096276;28;19934;-84
2024/04/04 14:47:41;;;;;;;;;;;;;;;;;;5093929;28;19908;-83
2024/04/04 14:50:06;;;;;;;;;;;;;;;;;;5095047;28;19909;-83
2024/04/04 14:52:31;;;;;;;;;;;;;;;;;;5093396;28;19953;-81
2024/04/04 14:54:56;;;;;;;;;;;;;;;;;;5097812;28;20524;-84
2024/04/04 14:57:21;;;;;;;;;;;;;;;;;;5096674;28;20527;-82
2024/04/04 14:59:46;;;;;;;;;;;;;;;;;;5094979;28;20340;-83
2024/04/04 15:02:11;;;;;;;;;;;;;;;;;;5094658;28;20295;-82
2024/04/04 15:04:36;;;;;;;;;;;;;;;;;;5094486;28;19930;-83
2024/04/04 15:07:03;;;;;;;;;;;;;;;;;;5095092;28;19908;-82
2024/04/04 15:09:28;;;;;;;;;;;;;;;;;;5094709;28;19950;-82
2024/04/04 15:11:53;;;;;;;;;;;;;;;;;;5095353;28;19912;-83
2024/04/04 15:14:18;;;;;;;;;;;;;;;;;;5095192;28;19908;-82
2024/04/04 15:16:44;;;;;;;;;;;;;;;;;;5095195;28;19929;-82
2024/04/04 15:19:09;;;;;;;;;;;;;;;;;;5096052;28;19908;-82
2024/04/04 15:21:34;;;;;;;;;;;;;;;;;;5098589;28;20386;-84
2024/04/04 15:23:59;;;;;;;;;;;;;;;;;;5096094;28;20383;-83
2024/04/04 15:26:24;;;;;;;;;;;;;;;;;;5098742;28;19983;-84
2024/04/04 15:28:53;;;;;;;;;;;;;;;;;;5096847;28;20367;-84
2024/04/04 15:31:18;;;;;;;;;;;;;;;;;;5098925;28;19934;-85
2024/04/04 15:33:43;;;;;;;;;;;;;;;;;;5099374;28;19912;-82
2024/04/04 15:36:08;;;;;;;;;;;;;;;;;;5099225;28;19994;-83
2024/04/04 15:38:33;;;;;;;;;;;;;;;;;;5098576;28;19943;-82
2024/04/04 15:40:59;;;;;;;;;;;;;;;;;;5097726;28;19912;-82
2024/04/04 15:43:24;;;;;;;;;;;;;;;;;;5097465;28;19916;-81
2024/04/04 15:45:49;;;;;;;;;;;;;;;;;;5097727;28;19915;-81
2024/04/04 15:48:14;;;;;;;;;;;;;;;;;;5096258;28;19912;-82
2024/04/04 15:50:39;;;;;;;;;;;;;;;;;;5097028;28;19908;-81
2024/04/04 15:53:04;;;;;;;;;;;;;;;;;;5097736;28;19924;-81
2024/04/04 15:55:30;;;;;;;;;;;;;;;;;;5098213;28;20431;-82
2024/04/04 15:57:55;;;;;;;;;;;;;;;;;;5096730;28;19919;-81
2024/04/04 16:00:20;;;;;;;;;;;;;;;;;;5096208;28;20354;-82
2024/04/04 16:02:45;;;;;;;;;;;;;;;;;;5094369;28;20381;-82
2024/04/04 16:05:10;;;;;;;;;;;;;;;;;;5096471;28;19915;-82
2024/04/04 16:07:35;;;;;;;;;;;;;;;;;;5096523;28;19908;-84
2024/04/04 16:10:00;;;;;;;;;;;;;;;;;;5097184;28;19909;-80
2024/04/04 16:12:26;;;;;;;;;;;;;;;;;;5094928;28;20366;-83
2024/04/04 16:14:51;;;;;;;;;;;;;;;;;;5095163;28;19939;-81
2024/04/04 16:17:17;;;;;;;;;;;;;;;;;;5096205;28;20390;-83
2024/04/04 16:19:43;;;;;;;;;;;;;;;;;;5096499;28;19908;-82
2024/04/04 16:22:08;;;;;;;;;;;;;;;;;;5096356;28;19919;-83
2024/04/04 16:24:33;;;;;;;;;;;;;;;;;;5096323;28;20358;-83
2024/04/04 16:26:59;;;;;;;;;;;;;;;;;;5095292;28;19982;-82
2024/04/04 16:29:24;;;;;;;;;;;;;;;;;;5093224;28;19916;-81
2024/04/04 16:31:49;;;;;;;;;;;;;;;;;;5094495;28;19908;-81